createdAt,value
2019-04-01T00:00:54.760Z,6.30
2019-04-01T00:03:25.118Z,4.70
2019-04-01T00:05:56.437Z,9.00
2019-04-01T00:08:26.819Z,9.50
2019-04-01T00:10:57.170Z,8.98
2019-04-01T00:13:27.555Z,12.10
2019-04-01T00:15:57.900Z,6.70
2019-04-01T00:18:28.277Z,8.98
2019-04-01T00:20:58.631Z,7.95
2019-04-01T00:23:30.093Z,6.03
2019-04-01T00:26:00.452Z,8.38
2019-04-01T00:28:30.831Z,7.58
2019-04-01T00:31:01.206Z,9.08
2019-04-01T00:33:31.571Z,9.28
2019-04-01T00:36:01.922Z,8.05
2019-04-01T00:38:32.301Z,10.85
2019-04-01T00:41:02.653Z,6.90
2019-04-01T00:43:40.367Z,10.08
2019-04-01T00:46:12.400Z,9.33
2019-04-01T00:48:42.784Z,7.33
2019-04-01T00:51:13.137Z,6.97
2019-04-01T00:53:43.516Z,8.08
2019-04-01T00:56:13.953Z,10.25
2019-04-01T00:58:44.337Z,6.17
2019-04-01T01:01:14.703Z,10.75
2019-04-01T01:03:45.085Z,8.03
2019-04-01T01:06:15.510Z,6.80
2019-04-01T01:08:45.908Z,7.72
2019-04-01T01:11:16.299Z,6.62
2019-04-01T01:13:46.653Z,4.67
2019-04-01T01:16:17.015Z,8.90
2019-04-01T01:18:47.395Z,9.63
2019-04-01T01:21:17.851Z,8.98
2019-04-01T01:23:48.216Z,8.80
2019-04-01T01:26:18.577Z,8.90
2019-04-01T01:28:48.963Z,8.40
2019-04-01T01:31:19.329Z,5.72
2019-04-01T01:33:49.702Z,9.33
2019-04-01T01:36:20.064Z,8.80
2019-04-01T01:38:50.441Z,8.85
2019-04-01T01:41:20.807Z,7.15
2019-04-01T01:43:51.188Z,7.22
2019-04-01T01:46:21.550Z,7.72
2019-04-01T01:48:51.929Z,9.70
2019-04-01T01:51:22.286Z,7.47
2019-04-01T01:53:52.673Z,9.45
2019-04-01T01:56:23.038Z,7.83
2019-04-01T01:58:53.462Z,12.43
2019-04-01T02:01:23.841Z,10.00
2019-04-01T02:03:54.241Z,11.08
2019-04-01T02:06:25.668Z,9.23
2019-04-01T02:08:56.056Z,7.12
2019-04-01T02:11:26.417Z,10.65
2019-04-01T02:13:56.983Z,8.18
2019-04-01T02:16:27.340Z,8.63
2019-04-01T02:18:57.798Z,10.10
2019-04-01T02:21:28.163Z,9.23
2019-04-01T02:23:58.551Z,8.03
2019-04-01T02:26:28.910Z,10.95
2019-04-01T02:28:59.301Z,8.18
2019-04-01T02:31:30.636Z,8.10
2019-04-01T02:34:01.029Z,14.40
2019-04-01T02:36:31.391Z,9.63
2019-04-01T02:39:01.783Z,10.35
2019-04-01T02:41:45.894Z,5.37
2019-04-01T02:44:16.289Z,10.32
2019-04-01T02:46:46.650Z,9.93
2019-04-01T02:49:17.057Z,8.63
2019-04-01T02:51:47.558Z,7.30
2019-04-01T02:54:37.236Z,10.50
2019-04-01T02:57:07.606Z,9.33
2019-04-01T02:59:37.991Z,6.12
2019-04-01T03:02:08.347Z,9.10
2019-04-01T03:04:38.723Z,9.83
2019-04-01T03:07:09.100Z,11.33
2019-04-01T03:09:58.830Z,18.67
2019-04-01T03:12:29.195Z,9.05
2019-04-01T03:14:59.575Z,9.93
2019-04-01T03:17:29.937Z,11.15
2019-04-01T03:20:00.465Z,10.53
2019-04-01T03:22:32.148Z,10.08
2019-04-01T03:25:02.566Z,5.37
2019-04-01T03:27:32.923Z,10.80
2019-04-01T03:30:03.350Z,11.68
2019-04-01T03:32:33.685Z,10.55
2019-04-01T03:35:05.438Z,12.50
2019-04-01T03:37:35.884Z,14.90
2019-04-01T03:40:09.106Z,14.85
2019-04-01T03:42:39.489Z,19.30
2019-04-01T03:45:10.222Z,12.63
2019-04-01T03:47:40.592Z,12.40
2019-04-01T03:50:11.219Z,16.57
2019-04-01T03:52:41.589Z,17.23
2019-04-01T03:55:12.197Z,13.30
2019-04-01T03:57:42.529Z,7.67
2019-04-01T04:00:13.151Z,11.03
2019-04-01T04:02:43.520Z,12.93
2019-04-01T04:05:13.919Z,13.30
2019-04-01T04:07:44.285Z,15.85
2019-04-01T04:10:14.692Z,9.63
2019-04-01T04:12:45.109Z,14.18
2019-04-01T04:15:15.499Z,6.20
2019-04-01T04:17:45.866Z,8.93
2019-04-01T04:20:35.578Z,9.08
2019-04-01T04:23:05.964Z,11.45
2019-04-01T04:25:36.354Z,13.18
2019-04-01T04:28:06.712Z,12.15
2019-04-01T04:30:37.115Z,11.18
2019-04-01T04:33:07.486Z,9.68
2019-04-01T04:35:37.866Z,10.13
2019-04-01T04:38:08.230Z,7.62
2019-04-01T04:40:40.884Z,9.33
2019-04-01T04:43:10.693Z,12.07
2019-04-01T04:45:41.067Z,6.50
2019-04-01T04:48:11.431Z,9.58
2019-04-01T04:50:41.815Z,8.23
2019-04-01T04:53:12.186Z,15.13
2019-04-01T04:55:42.577Z,8.95
2019-04-01T04:58:12.934Z,13.65
2019-04-01T05:00:43.331Z,13.88
2019-04-01T05:03:13.696Z,15.35
2019-04-01T05:05:44.089Z,11.33
2019-04-01T05:08:14.462Z,29.82
2019-04-01T05:10:44.851Z,14.65
2019-04-01T05:13:15.218Z,13.88
2019-04-01T05:15:45.615Z,14.00
2019-04-01T05:18:15.984Z,12.53
2019-04-01T05:20:48.757Z,9.88
2019-04-01T05:23:19.668Z,14.28
2019-04-01T05:25:51.471Z,10.90
2019-04-01T05:28:23.346Z,12.98
2019-04-01T05:30:55.975Z,9.10
2019-04-01T05:33:28.734Z,11.85
2019-04-01T05:36:00.131Z,14.28
2019-04-01T05:38:30.962Z,11.93
2019-04-01T05:41:01.487Z,11.95
2019-04-01T05:43:31.846Z,15.90
2019-04-01T05:46:02.312Z,13.32
2019-04-01T05:48:32.733Z,15.15
2019-04-01T05:51:03.397Z,18.02
2019-04-01T05:53:33.921Z,9.65
2019-04-01T05:56:05.240Z,17.87
2019-04-01T05:58:35.772Z,12.23
2019-04-01T06:01:07.797Z,19.20
2019-04-01T06:03:38.325Z,14.10
2019-04-01T06:06:08.891Z,11.40
2019-04-01T06:08:39.408Z,11.63
2019-04-01T06:11:10.372Z,15.75
2019-04-01T06:13:40.734Z,14.90
2019-04-01T06:16:11.107Z,13.70
2019-04-01T06:18:41.562Z,11.28
2019-04-01T06:21:12.195Z,14.33
2019-04-01T06:23:42.607Z,9.55
2019-04-01T06:26:13.009Z,15.80
2019-04-01T06:28:43.413Z,14.85
2019-04-01T06:31:14.269Z,12.63
2019-04-01T06:33:44.621Z,10.68
2019-04-01T06:36:15.087Z,11.00
2019-04-01T06:38:45.448Z,16.40
2019-04-01T06:41:15.844Z,14.28
2019-04-01T06:43:46.208Z,9.48
2019-04-01T06:46:16.672Z,12.60
2019-04-01T06:48:47.064Z,9.25
2019-04-01T06:51:17.429Z,7.83
2019-04-01T06:53:48.232Z,14.80
2019-04-01T06:58:59.458Z,11.93
2019-04-01T07:01:29.820Z,7.53
2019-04-01T07:04:00.214Z,11.97
2019-04-01T07:06:30.755Z,6.50
2019-04-01T07:09:01.887Z,10.13
2019-04-01T07:11:33.377Z,8.38
2019-04-01T07:14:05.568Z,9.90
2019-04-01T07:16:39.831Z,10.88
2019-04-01T07:19:08.281Z,6.75
2019-04-01T07:21:38.691Z,7.28
2019-04-01T07:24:09.099Z,7.95
2019-04-01T07:26:39.562Z,9.43
2019-04-01T07:29:09.930Z,5.60
2019-04-01T07:31:41.122Z,12.00
2019-04-01T07:34:11.720Z,5.45
2019-04-01T07:36:42.347Z,11.15
2019-04-01T07:39:12.729Z,7.97
2019-04-01T07:41:43.093Z,8.05
2019-04-01T07:44:13.648Z,7.50
2019-04-01T07:46:44.030Z,9.75
2019-04-01T07:49:14.553Z,7.17
2019-04-01T07:51:45.062Z,6.35
2019-04-01T07:54:18.567Z,7.75
2019-04-01T07:56:47.922Z,6.60
2019-04-01T07:59:18.377Z,6.20
2019-04-01T08:01:48.812Z,5.62
2019-04-01T08:04:19.428Z,6.60
2019-04-01T08:06:50.364Z,3.62
2019-04-01T08:09:21.223Z,5.20
2019-04-01T08:11:51.662Z,6.05
2019-04-01T08:14:22.052Z,5.22
2019-04-01T08:16:52.581Z,4.75
2019-04-01T08:19:22.973Z,6.05
2019-04-01T08:21:53.409Z,7.15
2019-04-01T08:24:23.833Z,5.47
2019-04-01T08:26:54.254Z,6.75
2019-04-01T08:29:30.407Z,5.30
2019-04-01T08:31:56.748Z,4.65
2019-04-01T08:34:27.519Z,5.92
2019-04-01T08:36:57.956Z,6.15
2019-04-01T08:39:28.583Z,6.22
2019-04-01T08:41:59.828Z,4.00
2019-04-01T08:44:30.218Z,3.60
2019-04-01T08:47:00.583Z,5.60
2019-04-01T08:49:31.071Z,3.50
2019-04-01T08:52:01.428Z,4.85
2019-04-01T08:54:31.808Z,5.50
2019-04-01T08:57:02.177Z,2.52
2019-04-01T08:59:32.924Z,4.28
2019-04-01T09:02:17.256Z,7.50
2019-04-01T09:04:36.956Z,2.92
2019-04-01T09:07:07.458Z,6.62
2019-04-01T09:09:39.161Z,6.65
2019-04-01T09:12:09.995Z,5.45
2019-04-01T09:14:41.192Z,6.65
2019-04-01T09:17:12.546Z,5.83
2019-04-01T09:19:43.083Z,3.95
2019-04-01T09:22:13.487Z,6.33
2019-04-01T09:24:43.957Z,4.10
2019-04-01T09:27:15.146Z,3.55
2019-04-01T09:29:45.526Z,4.33
2019-04-01T09:32:15.898Z,4.20
2019-04-01T09:34:46.280Z,5.28
2019-04-01T09:37:16.706Z,9.83
2019-04-01T09:39:47.086Z,5.22
2019-04-01T09:42:17.557Z,5.22
2019-04-01T09:44:47.994Z,5.62
2019-04-01T09:47:18.362Z,4.90
2019-04-01T09:49:48.748Z,6.70
2019-04-01T09:52:19.106Z,9.23
2019-04-01T09:54:49.579Z,7.65
2019-04-01T09:57:19.947Z,6.83
2019-04-01T09:59:50.340Z,3.10
2019-04-01T10:02:31.770Z,4.67
2019-04-01T10:04:52.997Z,5.75
2019-04-01T10:07:23.395Z,4.67
2019-04-01T10:09:54.900Z,5.60
2019-04-01T10:12:26.294Z,6.37
2019-04-01T10:14:56.813Z,5.12
2019-04-01T10:17:27.275Z,5.40
2019-04-01T10:20:00.740Z,4.10
2019-04-01T10:22:29.781Z,5.90
2019-04-01T10:25:00.407Z,5.20
2019-04-01T10:27:31.045Z,4.08
2019-04-01T10:30:01.432Z,5.95
2019-04-01T10:32:33.108Z,7.00
2019-04-01T10:35:06.679Z,4.85
2019-04-01T10:37:37.032Z,4.58
2019-04-01T10:40:09.011Z,3.62
2019-04-01T10:42:39.362Z,3.62
2019-04-01T10:45:11.575Z,6.80
2019-04-01T10:47:42.095Z,3.98
2019-04-01T10:50:13.740Z,4.45
2019-04-01T10:52:44.476Z,3.30
2019-04-01T10:55:15.211Z,4.35
2019-04-01T10:57:45.774Z,4.97
2019-04-01T11:00:16.538Z,4.00
2019-04-01T11:02:49.950Z,5.50
2019-04-01T11:05:19.104Z,4.40
2019-04-01T11:07:49.556Z,5.87
2019-04-01T11:10:19.942Z,3.08
2019-04-01T11:12:50.314Z,3.20
2019-04-01T11:15:21.672Z,4.60
2019-04-01T11:17:52.764Z,4.20
2019-04-01T11:20:23.401Z,5.45
2019-04-01T11:22:53.767Z,3.58
2019-04-01T11:25:24.153Z,4.62
2019-04-01T11:27:54.591Z,2.92
2019-04-01T11:30:24.986Z,4.25
2019-04-01T11:32:55.368Z,3.92
2019-04-01T11:35:26.797Z,3.42
2019-04-01T11:37:57.146Z,4.62
2019-04-01T11:40:27.512Z,2.90
2019-04-01T11:42:58.011Z,4.40
2019-04-01T11:45:28.418Z,4.85
2019-04-01T11:47:58.867Z,2.75
2019-04-01T11:50:29.232Z,5.50
2019-04-01T11:52:59.661Z,5.78
2019-04-01T11:55:30.086Z,5.20
2019-04-01T11:58:00.463Z,4.47
2019-04-01T12:00:30.818Z,7.58
2019-04-01T12:03:01.199Z,5.72
2019-04-01T12:05:52.380Z,3.87
2019-04-01T12:08:24.475Z,4.90
2019-04-01T12:10:54.936Z,3.72
2019-04-01T12:13:37.488Z,4.22
2019-04-01T12:16:07.873Z,4.28
2019-04-01T12:18:38.243Z,7.92
2019-04-01T12:21:08.736Z,4.75
2019-04-01T12:23:40.103Z,5.87
2019-04-01T12:26:15.401Z,5.15
2019-04-01T12:28:43.634Z,7.65
2019-04-01T12:31:14.674Z,7.62
2019-04-01T12:33:45.108Z,4.80
2019-04-01T12:36:15.486Z,5.40
2019-04-01T12:38:45.943Z,6.35
2019-04-01T12:41:16.312Z,6.22
2019-04-01T12:43:46.715Z,6.53
2019-04-01T12:46:17.375Z,7.17
2019-04-01T12:48:48.869Z,6.75
2019-04-01T12:51:19.243Z,5.17
2019-04-01T12:53:49.636Z,6.00
2019-04-01T12:56:20.002Z,5.47
2019-04-01T12:58:50.390Z,4.85
2019-04-01T13:01:20.841Z,4.65
2019-04-01T13:03:51.251Z,8.78
2019-04-01T13:06:22.335Z,4.37
2019-04-01T13:08:53.759Z,5.58
2019-04-01T13:11:24.290Z,6.70
2019-04-01T13:13:54.752Z,5.47
2019-04-01T13:16:25.263Z,6.17
2019-04-01T13:18:55.650Z,5.67
2019-04-01T13:21:26.018Z,5.50
2019-04-01T13:23:56.591Z,4.22
2019-04-01T13:26:27.079Z,4.90
2019-04-01T13:28:57.458Z,4.47
2019-04-01T13:31:27.902Z,5.78
2019-04-01T13:33:58.258Z,4.05
2019-04-01T13:36:28.618Z,4.53
2019-04-01T13:39:03.860Z,4.40
2019-04-01T13:41:42.144Z,5.40
2019-04-01T13:44:08.914Z,6.45
2019-04-01T13:46:38.455Z,4.12
2019-04-01T13:49:08.837Z,6.05
2019-04-01T13:51:42.933Z,3.83
2019-04-01T13:54:11.954Z,3.42
2019-04-01T13:56:43.574Z,6.60
2019-04-01T13:59:17.318Z,6.92
2019-04-01T14:01:46.117Z,6.37
2019-04-01T14:04:16.484Z,4.17
2019-04-01T14:06:46.849Z,5.20
2019-04-01T14:09:17.239Z,5.75
2019-04-01T14:11:47.601Z,5.35
2019-04-01T14:14:18.060Z,7.58
2019-04-01T14:16:48.979Z,5.80
2019-04-01T14:19:19.573Z,5.33
2019-04-01T14:21:49.943Z,3.70
2019-04-01T14:24:20.539Z,4.22
2019-04-01T14:26:50.930Z,5.50
2019-04-01T14:29:21.309Z,3.55
2019-04-01T14:31:51.671Z,2.85
2019-04-01T14:34:23.769Z,4.78
2019-04-01T14:36:54.430Z,4.35
2019-04-01T14:39:24.962Z,5.28
2019-04-01T14:41:55.324Z,4.78
2019-04-01T14:44:26.070Z,3.70
2019-04-01T14:46:56.822Z,6.50
2019-04-01T14:49:27.212Z,7.53
2019-04-01T14:51:57.567Z,4.12
2019-04-01T14:54:28.101Z,4.22
2019-04-01T14:56:58.506Z,6.87
2019-04-01T14:59:28.895Z,2.05
2019-04-01T15:02:01.888Z,4.65
2019-04-01T15:04:31.567Z,6.95
2019-04-01T15:07:01.926Z,5.75
2019-04-01T15:09:33.458Z,7.37
2019-04-01T15:12:03.859Z,3.55
2019-04-01T15:14:34.492Z,5.17
2019-04-01T15:17:04.901Z,3.67
2019-04-01T15:19:35.468Z,6.20
2019-04-01T15:22:05.958Z,3.30
2019-04-01T15:24:40.356Z,4.08
2019-04-01T15:27:10.701Z,1.82
2019-04-01T15:29:41.133Z,5.17
2019-04-01T15:32:11.601Z,5.33
2019-04-01T15:34:41.986Z,3.40
2019-04-01T15:37:12.551Z,5.62
2019-04-01T15:39:47.076Z,5.05
2019-04-01T15:42:16.281Z,4.05
2019-04-01T15:44:49.884Z,4.35
2019-04-01T15:47:20.445Z,3.08
2019-04-01T15:49:50.899Z,4.75
2019-04-01T15:52:21.276Z,6.40
2019-04-01T15:54:51.660Z,3.15
2019-04-01T15:57:22.101Z,2.15
2019-04-01T15:59:52.502Z,5.62
2019-04-01T16:02:22.960Z,2.80
2019-04-01T16:04:53.325Z,4.47
2019-04-01T16:07:23.863Z,3.45
2019-04-01T16:09:54.284Z,5.70
2019-04-01T16:12:24.715Z,5.62
2019-04-01T16:14:55.161Z,3.67
2019-04-01T16:17:25.535Z,4.10
2019-04-01T16:19:55.990Z,6.70
2019-04-01T16:22:26.355Z,5.12
2019-04-01T16:24:56.759Z,4.05
2019-04-01T16:27:27.870Z,6.47
2019-04-01T16:29:58.262Z,5.90
2019-04-01T16:32:29.387Z,3.67
2019-04-01T16:35:00.186Z,4.50
2019-04-01T16:37:30.645Z,4.50
2019-04-01T16:40:01.392Z,6.37
2019-04-01T16:42:32.033Z,6.70
2019-04-01T16:45:02.689Z,7.87
2019-04-01T16:47:33.055Z,5.72
2019-04-01T16:50:05.579Z,7.35
2019-04-01T16:52:36.272Z,5.08
2019-04-01T16:55:08.177Z,5.40
2019-04-01T16:57:38.541Z,4.70
2019-04-01T17:00:14.274Z,4.65
2019-04-01T17:02:43.186Z,5.87
2019-04-01T17:05:14.976Z,9.45
2019-04-01T17:07:45.505Z,6.53
2019-04-01T17:10:24.002Z,7.67
2019-04-01T17:12:54.354Z,4.25
2019-04-01T17:15:24.825Z,6.17
2019-04-01T17:17:55.186Z,7.17
2019-04-01T17:20:26.862Z,4.95
2019-04-01T17:22:57.900Z,7.20
2019-04-01T17:25:28.823Z,5.75
2019-04-01T17:27:59.867Z,6.30
2019-04-01T17:30:30.933Z,6.00
2019-04-01T17:33:01.769Z,6.53
2019-04-01T17:35:34.329Z,6.40
2019-04-01T17:38:07.068Z,4.65
2019-04-01T17:40:38.316Z,11.38
2019-04-01T17:43:13.494Z,7.85
2019-04-01T17:45:43.807Z,7.60
2019-04-01T17:48:14.890Z,4.97
2019-04-01T17:51:05.987Z,7.37
2019-04-01T17:53:37.480Z,7.15
2019-04-01T17:56:08.129Z,7.58
2019-04-01T17:58:38.958Z,4.53
2019-04-01T18:01:10.499Z,7.12
2019-04-01T18:03:41.636Z,7.05
2019-04-01T18:06:12.425Z,4.60
2019-04-01T18:08:42.916Z,5.17
2019-04-01T18:11:15.934Z,6.10
2019-04-01T18:13:45.340Z,6.78
2019-04-01T18:16:15.841Z,8.08
2019-04-01T18:18:46.302Z,6.83
2019-04-01T18:21:16.770Z,7.83
2019-04-01T18:23:47.209Z,6.55
2019-04-01T18:26:18.031Z,5.58
2019-04-01T18:28:48.708Z,5.08
2019-04-01T18:31:19.077Z,4.37
2019-04-01T18:33:56.056Z,5.95
2019-04-01T18:36:22.982Z,7.53
2019-04-01T18:38:53.404Z,5.80
2019-04-01T18:41:23.781Z,8.63
2019-04-01T18:43:55.150Z,4.42
2019-04-01T18:46:25.503Z,5.58
2019-04-01T18:48:55.926Z,5.70
2019-04-01T18:51:26.705Z,5.47
2019-04-01T18:53:57.281Z,4.12
2019-04-01T18:56:28.985Z,4.22
2019-04-01T18:59:01.007Z,6.78
2019-04-01T19:01:31.450Z,5.03
2019-04-01T19:04:01.797Z,5.20
2019-04-01T19:06:32.192Z,7.75
2019-04-01T19:09:09.042Z,4.25
2019-04-01T19:11:35.047Z,4.35
2019-04-01T19:14:05.781Z,5.72
2019-04-01T19:16:36.305Z,4.95
2019-04-01T19:19:07.141Z,7.17
2019-04-01T19:21:37.521Z,7.58
2019-04-01T19:24:10.606Z,6.40
2019-04-01T19:26:43.966Z,6.67
2019-04-01T19:29:15.985Z,5.22
2019-04-01T19:31:46.510Z,6.70
2019-04-01T19:34:22.843Z,6.03
2019-04-01T19:36:53.228Z,3.45
2019-04-01T19:39:24.312Z,8.33
2019-04-01T19:41:54.688Z,5.00
2019-04-01T19:44:25.104Z,4.03
2019-04-01T19:46:55.478Z,4.37
2019-04-01T19:49:25.983Z,7.65
2019-04-01T19:51:57.683Z,5.15
2019-04-01T19:54:31.579Z,6.37
2019-04-01T19:57:00.196Z,6.12
2019-04-01T19:59:30.558Z,8.73
2019-04-01T20:02:00.977Z,6.70
2019-04-01T20:04:31.331Z,6.58
2019-04-01T20:07:01.716Z,7.10
2019-04-01T20:09:32.369Z,6.42
2019-04-01T20:12:02.725Z,5.97
2019-04-01T20:14:33.109Z,5.20
2019-04-01T20:17:03.456Z,5.55
2019-04-01T20:19:34.073Z,5.20
2019-04-01T20:22:04.791Z,6.60
2019-04-01T20:24:35.173Z,5.70
2019-04-01T20:27:05.528Z,5.15
2019-04-01T20:29:35.909Z,6.00
2019-04-01T20:32:16.530Z,6.17
2019-04-01T20:34:38.337Z,7.42
2019-04-01T20:37:08.693Z,4.22
2019-04-01T20:39:39.148Z,6.37
2019-04-01T20:42:09.552Z,4.58
2019-04-01T20:44:40.337Z,5.83
2019-04-01T20:47:11.431Z,6.50
2019-04-01T20:49:42.804Z,6.50
2019-04-01T20:52:13.148Z,7.50
2019-04-01T20:54:45.012Z,5.35
2019-04-01T20:57:16.353Z,5.95
2019-04-01T20:59:47.620Z,6.33
2019-04-01T21:02:17.975Z,6.83
2019-04-01T21:04:48.382Z,9.15
2019-04-01T21:07:21.516Z,5.53
2019-04-01T21:09:51.894Z,6.28
2019-04-01T21:12:22.252Z,7.83
2019-04-01T21:14:52.818Z,7.37
2019-04-01T21:17:24.003Z,6.25
2019-04-01T21:19:54.655Z,6.85
2019-04-01T21:22:25.013Z,8.90
2019-04-01T21:24:55.388Z,8.80
2019-04-01T21:27:25.743Z,7.25
2019-04-01T21:29:56.127Z,10.58
2019-04-01T21:32:26.510Z,6.10
2019-04-01T21:34:57.860Z,5.25
2019-04-01T21:37:28.251Z,6.70
2019-04-01T21:39:59.226Z,9.50
2019-04-01T21:42:29.939Z,9.00
2019-04-01T21:45:00.304Z,7.95
2019-04-01T21:47:30.662Z,6.58
2019-04-01T21:50:01.032Z,9.63
2019-04-01T21:52:31.656Z,7.30
2019-04-01T21:55:02.043Z,8.90
2019-04-01T21:57:32.400Z,6.37
2019-04-01T22:00:03.438Z,6.00
2019-04-01T22:02:36.379Z,6.17
2019-04-01T22:05:10.180Z,7.80
2019-04-01T22:07:41.068Z,7.37
2019-04-01T22:10:12.118Z,6.40
2019-04-01T22:12:42.485Z,9.60
2019-04-01T22:15:12.960Z,8.68
2019-04-01T22:17:43.310Z,8.95
2019-04-01T22:20:13.760Z,7.72
2019-04-01T22:22:44.116Z,8.43
2019-04-01T22:25:14.487Z,7.92
2019-04-01T22:27:44.843Z,6.55
2019-04-01T22:30:17.209Z,8.45
2019-04-01T22:32:47.645Z,7.95
2019-04-01T22:35:18.024Z,10.35
2019-04-01T22:37:48.383Z,6.20
2019-04-01T22:40:18.801Z,8.88
2019-04-01T22:42:49.164Z,8.23
2019-04-01T22:45:20.571Z,10.68
2019-04-01T22:47:51.271Z,9.63
2019-04-01T22:50:21.640Z,8.95
2019-04-01T22:52:51.990Z,6.85
2019-04-01T22:55:22.368Z,7.25
2019-04-01T22:57:53.316Z,7.83
2019-04-01T23:00:23.984Z,8.73
2019-04-01T23:02:54.338Z,8.15
2019-04-01T23:05:25.691Z,12.50
2019-04-01T23:07:56.043Z,7.08
2019-04-01T23:10:27.228Z,10.30
2019-04-01T23:12:59.015Z,7.35
2019-04-01T23:15:29.376Z,8.00
2019-04-01T23:17:59.731Z,10.03
2019-04-01T23:20:30.267Z,7.70
2019-04-01T23:23:00.611Z,8.68
2019-04-01T23:25:30.991Z,7.75
2019-04-01T23:28:01.338Z,9.78
2019-04-01T23:30:31.718Z,8.30
2019-04-01T23:33:02.067Z,10.55
2019-04-01T23:35:32.514Z,10.90
2019-04-01T23:38:02.872Z,11.00
2019-04-01T23:40:33.242Z,8.78
2019-04-01T23:43:03.668Z,11.55
2019-04-01T23:45:34.041Z,8.43
2019-04-01T23:48:04.404Z,10.20
2019-04-01T23:50:35.224Z,10.82
2019-04-01T23:53:05.580Z,8.88
2019-04-01T23:55:36.152Z,8.38
2019-04-01T23:58:06.511Z,9.28
